Isle Of Palms, SC

8:04 AM EST on February 25, 2017 (GMT -0500)
Jennie Moore Elementary | | Change Station
Active Advisory: Special Statement

Elev 19 ft 32.85 °N, 79.79 °W | Updated 3 seconds ago

Clear
Clear
62.2 °F
Feels Like 62.2 °F
N
0.2
Wind Variable Wind from South
Gusts 2.5 mph

Today
High -- | Low -- °F
--% Chance of Precip.
Yesterday
High -- | Low -- °F
Precip. -- in
Pressure 29.82 in
Visibility 4.0 miles
Clouds Mostly Cloudy 200 ft
Mostly Cloudy 5000 ft
Mostly Cloudy 6000 ft
Dew Point 62 °F
Humidity 99%
Rainfall 0.00 in
Snow Depth Not available.
6:51 AM 6:13 PM
Waning Crescent, 1% visible
METAR KJZI 251255Z AUTO 20007KT 4SM BR BKN002 BKN050 BKN060 18/18 A2982 RMK AO2
Pressure 29.82 in
Visibility 4.0 miles
Clouds Mostly Cloudy 200 ft
Mostly Cloudy 5000 ft
Mostly Cloudy 6000 ft
Dew Point 62 °F
Humidity 99%
Rainfall 0.00 in
Snow Depth Not available.
6:51 AM 6:13 PM
Waning Crescent, 1% visible
METAR KJZI 251255Z AUTO 20007KT 4SM BR BKN002 BKN050 BKN060 18/18 A2982 RMK AO2

Get Your Daily Forecast Email!

Thanks for signing up!

Be on the lookout for a verification email in your inbox.

You'll start receiving the daily forecast at 8 AM.

×

10-Day Weather Forecast

Almanac

Astronomy

Feb. 25, 2017 Rise Set
Actual Time
Civil Twilight
Nautical Twilight
Astronomical Twilight
Moon
Length of Visible Light
Length of Day
Tomorrow will be .
, % of the Moon is Illuminated

Today's Extremes

State Highs State Lows

Community

WunderPhotos

Upload Photos

1,962,540 photos uploaded!

WunderBlog® & News

Nearby

Air Quality

  Air Quality AQ Index Pollutant
Not available.

Snow Depth

Station Depth Elevation

Earthquake Activity

City Distance Mag. Time & Date
Minimum magnitude displayed is 2.5.

Coastal Water Temperatures

Place Temperature

Stations

Nearby Weather Stations

Station Location Temp. Windchill Dew Point Humidity Wind Precip. Elev Updated Type
                   

Watches & Warnings

Special Statement
Issued: 4:39 AM EST Feb. 25, 2017 – National Weather Service

... Areas of fog will impact the area this morning...

Areas of fog will impact much of southern South Carolina and
southeast Georgia through 9 or 10 am. The fog will become locally
dense, reducing visibilities on area roadways. If the coverage of
the dense fog increases enough a dense fog advisory would be
required.

Precautionary/preparedness actions...

If driving, slow down and leave extra distance ahead of you in
case a sudden stop is needed.